Terminal Aerodrome Forecast
Issued by NWS

Current Version | Previous Version | Graphics & Text | Print | Product List | Glossary On
Versions: 1 2 3 4 5 6 7 8 9 10 11 12 13 14 15
000
FTUS41 KRNK 170523
TAFLWB
TAF
KLWB 170523Z 1706/1806 27006KT P6SM -SN OVC025
      TEMPO 1710/1712 3SM -SN OVC007
     FM171200 30006KT P6SM VCSH BKN060
     FM171500 30007KT P6SM SCT090=

USA.gov is the U.S. government's official web portal to all federal, state and local government web resources and services.